Woodsetts, United Kingdom
Current Conditions -  °F | °C
As of 7:50 PM on Wednesday 26 Nov 2014 (Local Time) from EGCN Reporting Station
Haze Haze  
Wind Chill: 44°   Ceiling: 100
Heat Index: 46°   Visibility: 0.93mi
Dew Point: 45°   Wind: 6mph
Humidity: 93%   Direction: 340°NNW
Pressure: 29.83"   Gusts: NA
Location:  53.35°N, 1.17°W
Report Text: EGCN 261950Z 34005KT 1500 BR BKN001 OVC007 08/07 Q1010
Loading
Personal Weather Stations






























Interactive Weather Map New forecast layout! Learn more

10-Day Weather Forecast

Advertisements
Track Severe Weather on mobile